Phaethon — SVAM2 — position and weather

sailwx.info

Track history (hours):
 
Tides and Currents Weather Stations Pressure Air Temp Water Temp Dewpoint Dewpoint Depression Visibility Wind Speed Wind Dir Waves Ship Positions

Phaethon

Last reported at 2016-Feb-11 15:18 UTC. Time now 2016-Feb-12 01:24 UTC.
Position N 40°53' E 028°36'.

Length 274 m; draft 15.9 m.

Type: Tanker. MMSI: 240836000.

Date/timePositionNaut miles runAvg speedWind from/ knotsBaromVisibWave heightAir tempDewpointWater temp
2016-Feb-11 15:18N 40°53' E 028°36'1312.2
2016-Feb-11 14:14N 40°55' E 028°53'5 4.8
2016-Feb-11 13:06N 40°59' E 028°59'36111.3
2016-Feb-10 05:16N 43°57' E 036°05'7513.0
2016-Feb-09 23:30N 44°33' E 037°37'6 6.1
2016-Feb-09 22:33N 44°37' E 037°42'1 0.8
2016-Feb-09 21:34N 44°37' E 037°43'1 1.0
2016-Feb-09 20:33N 44°37' E 037°42'0 0.2
2016-Feb-09 19:30N 44°37' E 037°42'2 1.9
2016-Feb-09 18:26N 44°37' E 037°39'0 0.0
2016-Feb-09 08:32N 44°37' E 037°40'0 0.0
2016-Feb-09 07:32N 44°37' E 037°40'0 0.0
2016-Feb-09 06:08N 44°37' E 037°40'0 0.0
2016-Feb-09 05:29N 44°37' E 037°40'0 0.0
2016-Feb-09 04:32N 44°37' E 037°40'0 0.0
2016-Feb-09 01:32N 44°37' E 037°40'0 0.1
2016-Feb-08 23:29N 44°37' E 037°39'0 0.1
2016-Feb-08 22:20N 44°37' E 037°39'1 0.9
2016-Feb-08 21:33N 44°37' E 037°39'2 2.4
2016-Feb-08 20:33N 44°35' E 037°40'8 8.2
2016-Feb-08 19:34N 44°33' E 037°51'3 3.1
2016-Feb-08 18:32N 44°34' E 037°55'0 0.0
2016-Feb-08 17:32N 44°34' E 037°55'0 0.0
2016-Feb-08 16:32N 44°34' E 037°55'0 0.0
2016-Feb-08 15:29N 44°34' E 037°55'0 0.1
2016-Feb-08 14:32N 44°34' E 037°55'0 0.2
2016-Feb-08 13:32N 44°34' E 037°55'0 0.0
2016-Feb-08 12:32N 44°34' E 037°55'0 0.1
2016-Feb-08 11:32N 44°34' E 037°55'0 0.2
2016-Feb-08 10:32N 44°34' E 037°56'0 0.1
2016-Feb-08 09:32N 44°34' E 037°56'0 0.0
2016-Feb-08 08:32N 44°34' E 037°56'0 0.1
2016-Feb-08 07:32N 44°34' E 037°56'0 0.2
2016-Feb-08 06:32N 44°34' E 037°55'0 0.1
2016-Feb-08 05:32N 44°34' E 037°55'0 0.0
2016-Feb-08 04:32N 44°34' E 037°55'0 0.1
2016-Feb-08 03:32N 44°34' E 037°55'0 0.0
2016-Feb-08 02:32N 44°34' E 037°55'0 0.0
2016-Feb-08 01:32N 44°34' E 037°55'0 0.1
2016-Feb-08 00:32N 44°34' E 037°55'2 2.0
2016-Feb-07 23:33N 44°33' E 037°54'7 7.4
2016-Feb-07 22:33N 44°30' E 037°45'1312.5
2016-Feb-07 21:34N 44°31' E 037°27'10 1.4
2016-Feb-07 14:24N 44°37' E 037°16'5 6.2
2016-Feb-07 13:33N 44°35' E 037°23'2 1.5
2016-Feb-07 12:33N 44°36' E 037°24'2 1.9
2016-Feb-07 11:33N 44°38' E 037°26'2 1.9
2016-Feb-07 10:33N 44°37' E 037°23'2 1.8
2016-Feb-07 09:33N 44°36' E 037°21'2 1.7
2016-Feb-07 08:33N 44°37' E 037°22'1 1.4
2016-Feb-07 07:33N 44°39' E 037°23'1 1.1
2016-Feb-07 06:32N 44°40' E 037°24'2 1.8
2016-Feb-07 05:24N 44°38' E 037°23'4 3.9
2016-Feb-07 04:16N 44°33' E 037°23'4 5.0
2016-Feb-07 03:31N 44°37' E 037°20'3 0.9
2016-Feb-07 00:20N 44°38' E 037°24'3 3.0
2016-Feb-06 23:13N 44°35' E 037°21'1 0.3
2016-Feb-06 19:26N 44°36' E 037°20'5 5.2
2016-Feb-06 18:32N 44°33' E 037°25'3 2.6
2016-Feb-06 17:32N 44°31' E 037°28'1 1.5
2016-Feb-06 16:33N 44°31' E 037°30'4 3.7
2016-Feb-06 15:33N 44°33' E 037°25'5 4.6
2016-Feb-06 14:33N 44°36' E 037°22'2 1.8
2016-Feb-06 13:31N 44°38' E 037°23'4 4.1
2016-Feb-06 12:32N 44°34' E 037°25'4 4.0
2016-Feb-06 11:33N 44°31' E 037°28'5 4.9
2016-Feb-06 10:33N 44°28' E 037°33'2 1.8
2016-Feb-06 09:34N 44°30' E 037°33'2 2.3
2016-Feb-06 08:33N 44°32' E 037°33'2 1.5
2016-Feb-06 07:33N 44°34' E 037°32'6 5.9
2016-Feb-06 06:33N 44°28' E 037°35'3 2.8
2016-Feb-06 05:33N 44°26' E 037°38'1 1.5
2016-Feb-06 04:33N 44°28' E 037°38'2 1.5
2016-Feb-06 03:32N 44°29' E 037°39'1 1.5
2016-Feb-06 02:32N 44°31' E 037°39'1 1.4
2016-Feb-06 01:33N 44°32' E 037°39'1 0.6
2016-Feb-06 00:33N 44°33' E 037°39'8 7.9
2016-Feb-05 23:33N 44°30' E 037°29'5 4.5
2016-Feb-05 22:33N 44°28' E 037°23'2 2.1
2016-Feb-05 21:32N 44°28' E 037°26'2 2.0
2016-Feb-05 20:33N 44°29' E 037°28'2 1.9
2016-Feb-05 19:26N 44°29' E 037°31'4 5.0
2016-Feb-05 18:33N 44°31' E 037°37'5 5.0
2016-Feb-05 17:33N 44°34' E 037°43'1 1.5
2016-Feb-05 16:33N 44°35' E 037°41'1 0.9
2016-Feb-05 15:33N 44°36' E 037°40'0 0.3
2016-Feb-05 14:33N 44°35' E 037°41'1 0.8
2016-Feb-05 13:33N 44°35' E 037°41'7 7.0
2016-Feb-05 12:33N 44°28' E 037°36'1 0.9
2016-Feb-05 11:33N 44°28' E 037°35'1 0.8
2016-Feb-05 10:33N 44°29' E 037°34'1 0.8
2016-Feb-05 09:34N 44°29' E 037°33'1 0.6
2016-Feb-05 08:34N 44°30' E 037°33'1 0.5
2016-Feb-05 07:33N 44°30' E 037°33'0 0.4
2016-Feb-05 06:33N 44°30' E 037°32'0 0.4
2016-Feb-05 05:34N 44°30' E 037°32'0 0.4
2016-Feb-05 04:33N 44°30' E 037°31'0 0.4
2016-Feb-05 03:33N 44°30' E 037°31'1 0.6
2016-Feb-05 02:33N 44°29' E 037°30'1 0.5
2016-Feb-05 01:33N 44°29' E 037°29'1 0.8
2016-Feb-05 00:32N 44°28' E 037°29'1 1.1
2016-Feb-04 23:34N 44°27' E 037°28'1 1.1
2016-Feb-04 22:32N 44°26' E 037°27'1 1.0
2016-Feb-04 21:33N 44°26' E 037°26'6 3.2
2016-Feb-04 19:33N 44°32' E 037°24'3 2.7
2016-Feb-04 18:27N 44°33' E 037°20'1 1.5
2016-Feb-04 17:31N 44°32' E 037°19'4 1.8
2016-Feb-04 15:29N 44°28' E 037°17'2 2.0
2016-Feb-04 14:33N 44°26' E 037°17'2 1.8
2016-Feb-04 13:33N 44°25' E 037°17'8 8.1
2016-Feb-04 12:33N 44°17' E 037°17'10 8.5
2016-Feb-04 11:20N 44°14' E 037°03'9 9.0
2016-Feb-04 10:18N 44°10' E 036°51'7 9.0
2016-Feb-04 09:30N 44°09' E 036°42'8 8.8
2016-Feb-04 08:34N 44°07' E 036°30'381 8.8
2016-Feb-02 13:08N 40°59' E 028°60'4 6.2
2016-Feb-02 12:29N 40°55' E 028°59'6 6.1
2016-Feb-02 11:33N 40°49' E 028°60'8 3.8
2016-Feb-02 09:33N 40°44' E 028°52'1 0.7
2016-Feb-02 08:14N 40°44' E 028°51'2 0.4
2016-Feb-02 04:17N 40°43' E 028°49'4 0.4
2016-Feb-01 19:14N 40°44' E 028°45'  
Track history (hours):
 
Tides and Currents Weather Stations Pressure Air Temp Water Temp Dewpoint Dewpoint Depression Visibility Wind Speed Wind Dir Waves Ship Positions

Phaethon

Last reported at 2016-Feb-11 15:18 UTC. Time now 2016-Feb-12 01:24 UTC.
Position N 40°53' E 028°36'.

Length 274 m; draft 15.9 m.

Type: Tanker. MMSI: 240836000.

Date/timePositionNaut miles runAvg speedWind from/ knotsBaromVisibWave heightAir tempDewpointWater temp
2016-Feb-11 15:18N 40°53' E 028°36'1312.2
2016-Feb-11 14:14N 40°55' E 028°53'5 4.8
2016-Feb-11 13:06N 40°59' E 028°59'36111.3
2016-Feb-10 05:16N 43°57' E 036°05'7513.0
2016-Feb-09 23:30N 44°33' E 037°37'6 6.1
2016-Feb-09 22:33N 44°37' E 037°42'1 0.8
2016-Feb-09 21:34N 44°37' E 037°43'1 1.0
2016-Feb-09 20:33N 44°37' E 037°42'0 0.2
2016-Feb-09 19:30N 44°37' E 037°42'2 1.9
2016-Feb-09 18:26N 44°37' E 037°39'0 0.0
2016-Feb-09 08:32N 44°37' E 037°40'0 0.0
2016-Feb-09 07:32N 44°37' E 037°40'0 0.0
2016-Feb-09 06:08N 44°37' E 037°40'0 0.0
2016-Feb-09 05:29N 44°37' E 037°40'0 0.0
2016-Feb-09 04:32N 44°37' E 037°40'0 0.0
2016-Feb-09 01:32N 44°37' E 037°40'0 0.1
2016-Feb-08 23:29N 44°37' E 037°39'0 0.1
2016-Feb-08 22:20N 44°37' E 037°39'1 0.9
2016-Feb-08 21:33N 44°37' E 037°39'2 2.4
2016-Feb-08 20:33N 44°35' E 037°40'8 8.2
2016-Feb-08 19:34N 44°33' E 037°51'3 3.1
2016-Feb-08 18:32N 44°34' E 037°55'0 0.0
2016-Feb-08 17:32N 44°34' E 037°55'0 0.0
2016-Feb-08 16:32N 44°34' E 037°55'0 0.0
2016-Feb-08 15:29N 44°34' E 037°55'0 0.1
2016-Feb-08 14:32N 44°34' E 037°55'0 0.2
2016-Feb-08 13:32N 44°34' E 037°55'0 0.0
2016-Feb-08 12:32N 44°34' E 037°55'0 0.1
2016-Feb-08 11:32N 44°34' E 037°55'0 0.2
2016-Feb-08 10:32N 44°34' E 037°56'0 0.1
2016-Feb-08 09:32N 44°34' E 037°56'0 0.0
2016-Feb-08 08:32N 44°34' E 037°56'0 0.1
2016-Feb-08 07:32N 44°34' E 037°56'0 0.2
2016-Feb-08 06:32N 44°34' E 037°55'0 0.1
2016-Feb-08 05:32N 44°34' E 037°55'0 0.0
2016-Feb-08 04:32N 44°34' E 037°55'0 0.1
2016-Feb-08 03:32N 44°34' E 037°55'0 0.0
2016-Feb-08 02:32N 44°34' E 037°55'0 0.0
2016-Feb-08 01:32N 44°34' E 037°55'0 0.1
2016-Feb-08 00:32N 44°34' E 037°55'2 2.0
2016-Feb-07 23:33N 44°33' E 037°54'7 7.4
2016-Feb-07 22:33N 44°30' E 037°45'1312.5
2016-Feb-07 21:34N 44°31' E 037°27'10 1.4
2016-Feb-07 14:24N 44°37' E 037°16'5 6.2
2016-Feb-07 13:33N 44°35' E 037°23'2 1.5
2016-Feb-07 12:33N 44°36' E 037°24'2 1.9
2016-Feb-07 11:33N 44°38' E 037°26'2 1.9
2016-Feb-07 10:33N 44°37' E 037°23'2 1.8
2016-Feb-07 09:33N 44°36' E 037°21'2 1.7
2016-Feb-07 08:33N 44°37' E 037°22'1 1.4
2016-Feb-07 07:33N 44°39' E 037°23'1 1.1
2016-Feb-07 06:32N 44°40' E 037°24'2 1.8
2016-Feb-07 05:24N 44°38' E 037°23'4 3.9
2016-Feb-07 04:16N 44°33' E 037°23'4 5.0
2016-Feb-07 03:31N 44°37' E 037°20'3 0.9
2016-Feb-07 00:20N 44°38' E 037°24'3 3.0
2016-Feb-06 23:13N 44°35' E 037°21'1 0.3
2016-Feb-06 19:26N 44°36' E 037°20'5 5.2
2016-Feb-06 18:32N 44°33' E 037°25'3 2.6
2016-Feb-06 17:32N 44°31' E 037°28'1 1.5
2016-Feb-06 16:33N 44°31' E 037°30'4 3.7
2016-Feb-06 15:33N 44°33' E 037°25'5 4.6
2016-Feb-06 14:33N 44°36' E 037°22'2 1.8
2016-Feb-06 13:31N 44°38' E 037°23'4 4.1
2016-Feb-06 12:32N 44°34' E 037°25'4 4.0
2016-Feb-06 11:33N 44°31' E 037°28'5 4.9
2016-Feb-06 10:33N 44°28' E 037°33'2 1.8
2016-Feb-06 09:34N 44°30' E 037°33'2 2.3
2016-Feb-06 08:33N 44°32' E 037°33'2 1.5
2016-Feb-06 07:33N 44°34' E 037°32'6 5.9
2016-Feb-06 06:33N 44°28' E 037°35'3 2.8
2016-Feb-06 05:33N 44°26' E 037°38'1 1.5
2016-Feb-06 04:33N 44°28' E 037°38'2 1.5
2016-Feb-06 03:32N 44°29' E 037°39'1 1.5
2016-Feb-06 02:32N 44°31' E 037°39'1 1.4
2016-Feb-06 01:33N 44°32' E 037°39'1 0.6
2016-Feb-06 00:33N 44°33' E 037°39'8 7.9
2016-Feb-05 23:33N 44°30' E 037°29'5 4.5
2016-Feb-05 22:33N 44°28' E 037°23'2 2.1
2016-Feb-05 21:32N 44°28' E 037°26'2 2.0
2016-Feb-05 20:33N 44°29' E 037°28'2 1.9
2016-Feb-05 19:26N 44°29' E 037°31'4 5.0
2016-Feb-05 18:33N 44°31' E 037°37'5 5.0
2016-Feb-05 17:33N 44°34' E 037°43'1 1.5
2016-Feb-05 16:33N 44°35' E 037°41'1 0.9
2016-Feb-05 15:33N 44°36' E 037°40'0 0.3
2016-Feb-05 14:33N 44°35' E 037°41'1 0.8
2016-Feb-05 13:33N 44°35' E 037°41'7 7.0
2016-Feb-05 12:33N 44°28' E 037°36'1 0.9
2016-Feb-05 11:33N 44°28' E 037°35'1 0.8
2016-Feb-05 10:33N 44°29' E 037°34'1 0.8
2016-Feb-05 09:34N 44°29' E 037°33'1 0.6
2016-Feb-05 08:34N 44°30' E 037°33'1 0.5
2016-Feb-05 07:33N 44°30' E 037°33'0 0.4
2016-Feb-05 06:33N 44°30' E 037°32'0 0.4
2016-Feb-05 05:34N 44°30' E 037°32'0 0.4
2016-Feb-05 04:33N 44°30' E 037°31'0 0.4
2016-Feb-05 03:33N 44°30' E 037°31'1 0.6
2016-Feb-05 02:33N 44°29' E 037°30'1 0.5
2016-Feb-05 01:33N 44°29' E 037°29'1 0.8
2016-Feb-05 00:32N 44°28' E 037°29'1 1.1
2016-Feb-04 23:34N 44°27' E 037°28'1 1.1
2016-Feb-04 22:32N 44°26' E 037°27'1 1.0
2016-Feb-04 21:33N 44°26' E 037°26'6 3.2
2016-Feb-04 19:33N 44°32' E 037°24'3 2.7
2016-Feb-04 18:27N 44°33' E 037°20'1 1.5
2016-Feb-04 17:31N 44°32' E 037°19'4 1.8
2016-Feb-04 15:29N 44°28' E 037°17'2 2.0
2016-Feb-04 14:33N 44°26' E 037°17'2 1.8
2016-Feb-04 13:33N 44°25' E 037°17'8 8.1
2016-Feb-04 12:33N 44°17' E 037°17'10 8.5
2016-Feb-04 11:20N 44°14' E 037°03'9 9.0
2016-Feb-04 10:18N 44°10' E 036°51'7 9.0
2016-Feb-04 09:30N 44°09' E 036°42'8 8.8
2016-Feb-04 08:34N 44°07' E 036°30'381 8.8
2016-Feb-02 13:08N 40°59' E 028°60'4 6.2
2016-Feb-02 12:29N 40°55' E 028°59'6 6.1
2016-Feb-02 11:33N 40°49' E 028°60'8 3.8
2016-Feb-02 09:33N 40°44' E 028°52'1 0.7
2016-Feb-02 08:14N 40°44' E 028°51'2 0.4
2016-Feb-02 04:17N 40°43' E 028°49'4 0.4
2016-Feb-01 19:14N 40°44' E 028°45'  

Dump ship's entire track history